createdAt,value
2022-09-28T00:01:25.433Z,11.07
2022-09-28T00:03:58.188Z,11.06
2022-09-28T00:06:28.845Z,10.91
2022-09-28T00:08:57.358Z,11.14
2022-09-28T00:11:28.114Z,10.71
2022-09-28T00:14:00.112Z,10.56
2022-09-28T00:16:31.876Z,10.75
2022-09-28T00:19:02.066Z,11.04
2022-09-28T00:21:33.644Z,9.91
2022-09-28T00:24:15.238Z,10.89
2022-09-28T00:26:47.995Z,10.43
2022-09-28T00:29:23.867Z,10.78
2022-09-28T00:31:59.724Z,10.75
2022-09-28T00:34:31.956Z,10.51
2022-09-28T00:37:01.338Z,10.80
2022-09-28T00:39:31.605Z,10.97
2022-09-28T00:42:00.734Z,10.89
2022-09-28T00:44:47.394Z,11.14
2022-09-28T00:47:28.067Z,10.61
2022-09-28T00:50:02.837Z,10.75
2022-09-28T00:52:37.059Z,10.56
2022-09-28T00:55:09.320Z,10.51
2022-09-28T00:57:39.063Z,10.52
2022-09-28T01:00:09.184Z,10.71
2022-09-28T01:02:38.006Z,10.85
2022-09-28T01:05:10.979Z,10.90
2022-09-28T01:07:40.074Z,10.69
2022-09-28T01:10:10.020Z,10.22
2022-09-28T01:12:38.471Z,10.52
2022-09-28T01:15:08.367Z,10.15
2022-09-28T01:17:56.790Z,10.56
2022-09-28T01:21:01.407Z,10.38
2022-09-28T01:24:15.200Z,10.42
2022-09-28T01:26:56.959Z,10.48
2022-09-28T01:29:52.925Z,10.23
2022-09-28T01:32:50.575Z,10.29
2022-09-28T01:35:24.794Z,10.07
2022-09-28T01:37:58.398Z,10.25
2022-09-28T01:40:29.967Z,10.17
2022-09-28T01:43:04.498Z,10.28
2022-09-28T01:45:42.195Z,10.23
2022-09-28T01:48:13.249Z,10.20
2022-09-28T01:50:46.527Z,10.28
2022-09-28T01:53:22.522Z,10.25
2022-09-28T01:55:56.623Z,10.22
2022-09-28T01:58:33.503Z,10.50
2022-09-28T02:01:09.970Z,10.52
2022-09-28T02:03:47.951Z,10.51
2022-09-28T02:06:21.812Z,10.29
2022-09-28T02:08:53.998Z,10.35
2022-09-28T02:11:27.397Z,10.45
2022-09-28T02:14:04.890Z,10.46
2022-09-28T02:16:40.373Z,10.54
2022-09-28T02:19:12.764Z,10.66
2022-09-28T02:21:47.654Z,10.66
2022-09-28T02:24:23.998Z,10.74
2022-09-28T02:26:56.684Z,10.51
2022-09-28T02:29:26.986Z,10.49
2022-09-28T02:31:55.354Z,9.67
2022-09-28T02:34:23.689Z,10.67
2022-09-28T02:36:51.940Z,10.81
2022-09-28T02:39:21.649Z,10.83
2022-09-28T02:42:08.604Z,10.96
2022-09-28T02:45:08.967Z,10.89
2022-09-28T02:48:00.778Z,10.40
2022-09-28T02:50:40.699Z,10.90
2022-09-28T02:53:26.059Z,11.01
2022-09-28T02:56:19.771Z,10.85
2022-09-28T02:58:58.194Z,10.69
2022-09-28T03:01:35.421Z,10.56
2022-09-28T03:04:14.680Z,10.73
2022-09-28T03:06:48.400Z,10.74
2022-09-28T03:09:27.627Z,10.52
2022-09-28T03:12:01.989Z,10.64
2022-09-28T03:14:30.566Z,10.52
2022-09-28T03:17:01.109Z,10.49
2022-09-28T03:19:32.423Z,10.31
2022-09-28T03:22:02.042Z,10.56
2022-09-28T03:24:30.583Z,10.47
2022-09-28T03:26:58.978Z,10.62
2022-09-28T03:29:27.417Z,10.69
2022-09-28T03:32:03.304Z,10.58
2022-09-28T03:34:31.572Z,10.78
2022-09-28T03:37:00.088Z,10.66
2022-09-28T03:39:28.698Z,10.51
2022-09-28T03:41:57.187Z,10.89
2022-09-28T03:44:25.531Z,10.78
2022-09-28T03:46:53.912Z,10.78
2022-09-28T03:49:23.645Z,10.58
2022-09-28T03:51:52.152Z,10.26
2022-09-28T03:54:20.488Z,10.62
2022-09-28T03:56:48.759Z,10.61
2022-09-28T03:59:18.479Z,10.59
2022-09-28T04:01:49.689Z,10.25
2022-09-28T04:04:18.379Z,10.40
2022-09-28T04:06:48.548Z,10.44
2022-09-28T04:09:17.311Z,10.32
2022-09-28T04:12:03.430Z,10.51
2022-09-28T04:14:34.077Z,9.81
2022-09-28T04:17:02.380Z,10.27
2022-09-28T04:19:33.060Z,10.26
2022-09-28T04:22:41.255Z,10.12
2022-09-28T04:25:10.668Z,10.26
2022-09-28T04:27:56.526Z,10.02
2022-09-28T04:30:24.903Z,10.17
2022-09-28T04:32:54.141Z,9.91
2022-09-28T04:35:22.554Z,10.04
2022-09-28T04:37:52.522Z,10.16
2022-09-28T04:40:21.239Z,9.77
2022-09-28T04:42:56.066Z,9.82
2022-09-28T04:45:26.215Z,10.02
2022-09-28T04:47:56.597Z,9.67
2022-09-28T04:50:32.447Z,10.04
2022-09-28T04:53:26.603Z,9.81
2022-09-28T04:56:00.582Z,9.77
2022-09-28T04:58:30.146Z,10.14
2022-09-28T05:01:01.645Z,10.01
2022-09-28T05:03:56.532Z,9.86
2022-09-28T05:06:39.529Z,9.84
2022-09-28T05:09:10.557Z,10.40
2022-09-28T05:11:38.911Z,10.38
2022-09-28T05:14:13.172Z,10.35
2022-09-28T05:16:42.136Z,9.82
2022-09-28T05:19:31.362Z,10.17
2022-09-28T05:22:04.785Z,10.38
2022-09-28T05:24:40.625Z,10.34
2022-09-28T05:27:08.962Z,10.13
2022-09-28T05:29:37.310Z,9.79
2022-09-28T05:32:24.113Z,10.42
2022-09-28T05:35:21.853Z,10.34
2022-09-28T05:37:50.687Z,10.35
2022-09-28T05:40:20.504Z,10.02
2022-09-28T05:42:50.164Z,10.48
2022-09-28T05:45:18.562Z,10.54
2022-09-28T05:47:48.335Z,10.51
2022-09-28T05:50:20.151Z,9.62
2022-09-28T05:52:50.537Z,10.56
2022-09-28T05:55:20.374Z,10.79
2022-09-28T05:57:48.963Z,10.01
2022-09-28T06:00:18.881Z,10.04
2022-09-28T06:03:05.392Z,11.08
2022-09-28T06:05:37.118Z,9.50
2022-09-28T06:08:08.239Z,11.08
2022-09-28T06:10:38.508Z,10.71
2022-09-28T06:13:08.218Z,10.81
2022-09-28T06:15:39.058Z,10.83
2022-09-28T06:18:11.328Z,11.24
2022-09-28T06:20:52.844Z,11.11
2022-09-28T06:23:31.427Z,11.35
2022-09-28T06:26:01.965Z,11.43
2022-09-28T06:28:31.839Z,11.21
2022-09-28T06:31:01.988Z,10.34
2022-09-28T06:33:31.917Z,11.53
2022-09-28T06:36:00.925Z,11.73
2022-09-28T06:38:29.213Z,11.45
2022-09-28T06:40:58.908Z,11.27
2022-09-28T06:43:34.121Z,11.73
2022-09-28T06:46:15.131Z,11.63
2022-09-28T06:48:52.894Z,11.66
2022-09-28T06:51:34.830Z,11.44
2022-09-28T06:54:13.237Z,11.41
2022-09-28T06:56:44.185Z,11.42
2022-09-28T06:59:14.120Z,11.30
2022-09-28T07:01:42.681Z,11.13
2022-09-28T07:04:31.922Z,11.24
2022-09-28T07:07:18.653Z,10.94
2022-09-28T07:10:24.077Z,10.94
2022-09-28T07:13:43.110Z,11.06
2022-09-28T07:16:09.812Z,10.61
2022-09-28T07:18:38.139Z,11.24
2022-09-28T07:21:08.615Z,11.15
2022-09-28T07:23:48.932Z,11.19
2022-09-28T07:26:25.672Z,11.12
2022-09-28T07:28:56.974Z,11.26
2022-09-28T07:31:57.562Z,11.27
2022-09-28T07:34:28.696Z,11.23
2022-09-28T07:37:13.393Z,10.86
2022-09-28T07:39:59.578Z,11.11
2022-09-28T07:42:47.349Z,11.30
2022-09-28T07:45:16.050Z,10.97
2022-09-28T07:47:45.860Z,11.38
2022-09-28T07:50:29.935Z,11.13
2022-09-28T07:53:22.544Z,11.25
2022-09-28T07:56:18.281Z,11.64
2022-09-28T07:59:05.058Z,12.10
2022-09-28T08:01:52.093Z,12.30
2022-09-28T08:04:21.882Z,11.54
2022-09-28T08:06:50.369Z,12.91
2022-09-28T08:09:20.514Z,13.10
2022-09-28T08:12:09.141Z,13.13
2022-09-28T08:14:44.129Z,12.75
2022-09-28T08:17:48.582Z,12.96
2022-09-28T08:20:38.444Z,12.79
2022-09-28T08:23:08.422Z,13.68
2022-09-28T08:25:38.283Z,13.29
2022-09-28T08:28:08.239Z,13.65
2022-09-28T08:30:44.296Z,13.58
2022-09-28T08:33:47.938Z,14.20
2022-09-28T08:36:36.082Z,14.21
2022-09-28T08:39:30.378Z,14.34
2022-09-28T08:42:30.144Z,14.23
2022-09-28T08:45:26.977Z,14.18
2022-09-28T08:48:56.289Z,13.92
2022-09-28T08:51:55.392Z,14.26
2022-09-28T08:54:41.795Z,14.26
2022-09-28T08:57:22.991Z,14.00
2022-09-28T08:59:55.773Z,13.89
2022-09-28T09:02:33.650Z,14.14
2022-09-28T09:05:19.168Z,14.40
2022-09-28T09:08:26.788Z,14.27
2022-09-28T09:11:05.507Z,14.44
2022-09-28T09:14:01.304Z,14.12
2022-09-28T09:16:44.161Z,13.93
2022-09-28T09:19:54.490Z,14.50
2022-09-28T09:22:41.752Z,14.54
2022-09-28T09:25:24.544Z,14.49
2022-09-28T09:28:32.136Z,14.71
2022-09-28T09:31:22.567Z,15.02
2022-09-28T09:34:17.935Z,14.76
2022-09-28T09:37:05.891Z,15.27
2022-09-28T09:40:23.241Z,15.16
2022-09-28T09:43:35.362Z,15.22
2022-09-28T09:46:28.753Z,15.51
2022-09-28T09:49:26.033Z,15.56
2022-09-28T09:52:05.114Z,15.62
2022-09-28T09:54:40.605Z,15.96
2022-09-28T09:57:18.701Z,15.83
2022-09-28T09:59:54.076Z,15.64
2022-09-28T10:02:33.707Z,15.36
2022-09-28T10:05:25.522Z,15.88
2022-09-28T10:08:01.600Z,15.66
2022-09-28T10:10:35.077Z,16.22
2022-09-28T10:13:11.315Z,16.49
2022-09-28T10:15:43.400Z,16.22
2022-09-28T10:18:35.890Z,16.55
2022-09-28T10:21:25.359Z,16.39
2022-09-28T10:24:02.786Z,16.83
2022-09-28T10:26:36.795Z,16.98
2022-09-28T10:29:15.819Z,16.72
2022-09-28T10:31:48.989Z,16.95
2022-09-28T10:34:29.529Z,16.94
2022-09-28T10:37:05.468Z,16.80
2022-09-28T10:39:56.593Z,16.88
2022-09-28T10:42:30.975Z,16.87
2022-09-28T10:45:08.301Z,16.76
2022-09-28T10:47:38.467Z,17.55
2022-09-28T10:50:22.151Z,17.70
2022-09-28T10:52:53.209Z,17.92
2022-09-28T10:55:41.439Z,17.91
2022-09-28T10:58:28.032Z,17.78
2022-09-28T11:01:08.232Z,17.82
2022-09-28T11:03:52.971Z,17.27
2022-09-28T11:06:28.097Z,17.51
2022-09-28T11:09:00.023Z,17.65
2022-09-28T11:11:31.482Z,17.46
2022-09-28T11:14:06.571Z,17.62
2022-09-28T11:16:39.013Z,17.53
2022-09-28T11:19:29.444Z,17.68
2022-09-28T11:21:57.742Z,17.89
2022-09-28T11:24:38.105Z,17.75
2022-09-28T11:27:06.946Z,18.02
2022-09-28T11:29:39.948Z,17.85
2022-09-28T11:32:43.914Z,17.75
2022-09-28T11:35:46.980Z,17.86
2022-09-28T11:38:41.253Z,17.97
2022-09-28T11:41:50.896Z,18.14
2022-09-28T11:44:40.115Z,18.24
2022-09-28T11:47:51.218Z,18.78
2022-09-28T11:50:31.936Z,18.39
2022-09-28T11:53:14.733Z,18.02
2022-09-28T11:55:52.183Z,17.70
2022-09-28T11:58:28.871Z,17.27
2022-09-28T12:01:05.940Z,17.01
2022-09-28T12:04:03.155Z,16.75
2022-09-28T12:06:42.156Z,16.39
2022-09-28T12:09:18.195Z,16.60
2022-09-28T12:12:14.154Z,16.85
2022-09-28T12:14:48.516Z,17.09
2022-09-28T12:17:26.196Z,17.48
2022-09-28T12:20:04.983Z,17.47
2022-09-28T12:22:39.192Z,17.53
2022-09-28T12:25:15.672Z,17.74
2022-09-28T12:27:54.957Z,17.76
2022-09-28T12:30:25.740Z,18.17
2022-09-28T12:33:02.782Z,18.21
2022-09-28T12:35:41.841Z,18.06
2022-09-28T12:39:08.441Z,18.39
2022-09-28T12:41:52.496Z,18.59
2022-09-28T12:44:39.124Z,17.94
2022-09-28T12:47:40.312Z,18.15
2022-09-28T12:50:39.527Z,18.97
2022-09-28T12:53:38.828Z,18.92
2022-09-28T12:56:21.557Z,18.96
2022-09-28T12:59:06.015Z,18.73
2022-09-28T13:02:22.736Z,19.72
2022-09-28T13:05:25.678Z,20.24
2022-09-28T13:08:05.308Z,19.62
2022-09-28T13:10:43.079Z,19.57
2022-09-28T13:13:34.784Z,19.32
2022-09-28T13:16:12.790Z,19.31
2022-09-28T13:18:52.215Z,18.94
2022-09-28T13:21:33.037Z,19.27
2022-09-28T13:24:27.751Z,19.21
2022-09-28T13:26:58.232Z,18.67
2022-09-28T13:29:27.952Z,19.00
2022-09-28T13:32:02.006Z,18.66
2022-09-28T13:34:35.310Z,18.26
2022-09-28T13:37:22.005Z,18.61
2022-09-28T13:39:53.188Z,18.17
2022-09-28T13:43:05.348Z,16.74
2022-09-28T13:45:56.752Z,17.46
2022-09-28T13:48:42.532Z,18.17
2022-09-28T13:51:27.293Z,17.79
2022-09-28T13:54:17.223Z,17.88
2022-09-28T13:56:55.288Z,17.69
2022-09-28T13:59:28.457Z,17.95
2022-09-28T14:02:07.071Z,17.44
2022-09-28T14:04:58.957Z,17.74
2022-09-28T14:07:47.888Z,17.44
2022-09-28T14:10:22.259Z,17.64
2022-09-28T14:12:51.577Z,17.82
2022-09-28T14:15:49.749Z,18.21
2022-09-28T14:18:30.458Z,18.19
2022-09-28T14:21:29.387Z,18.45
2022-09-28T14:24:23.186Z,18.20
2022-09-28T14:27:14.047Z,18.30
2022-09-28T14:29:42.649Z,18.22
2022-09-28T14:32:36.142Z,18.19
2022-09-28T14:35:07.538Z,18.00
2022-09-28T14:37:56.805Z,17.82
2022-09-28T14:40:49.717Z,17.29
2022-09-28T14:43:28.257Z,16.43
2022-09-28T14:46:33.242Z,16.60
2022-09-28T14:49:07.907Z,16.02
2022-09-28T14:52:04.735Z,15.72
2022-09-28T14:54:54.387Z,15.85
2022-09-28T14:57:30.238Z,15.79
2022-09-28T15:00:00.688Z,15.37
2022-09-28T15:02:38.441Z,15.73
2022-09-28T15:05:25.529Z,15.42
2022-09-28T15:07:56.268Z,15.47
2022-09-28T15:10:32.271Z,15.81
2022-09-28T15:13:04.034Z,15.51
2022-09-28T15:15:38.251Z,15.31
2022-09-28T15:18:58.845Z,15.43
2022-09-28T15:21:36.709Z,15.35
2022-09-28T15:24:27.195Z,15.57
2022-09-28T15:26:56.786Z,15.04
2022-09-28T15:29:31.014Z,15.43
2022-09-28T15:31:59.702Z,15.28
2022-09-28T15:34:48.529Z,15.56
2022-09-28T15:37:22.567Z,15.59
2022-09-28T15:39:53.302Z,15.90
2022-09-28T15:42:22.863Z,14.95
2022-09-28T15:45:24.869Z,15.68
2022-09-28T15:48:18.213Z,15.01
2022-09-28T15:51:05.120Z,15.71
2022-09-28T15:53:35.248Z,15.65
2022-09-28T15:56:10.227Z,15.32
2022-09-28T15:58:39.396Z,14.85
2022-09-28T16:01:37.037Z,14.45
2022-09-28T16:04:44.295Z,15.25
2022-09-28T16:07:25.572Z,14.70
2022-09-28T16:10:31.266Z,14.53
2022-09-28T16:13:15.814Z,14.79
2022-09-28T16:15:44.745Z,14.58
2022-09-28T16:18:23.518Z,14.56
2022-09-28T16:20:54.015Z,14.81
2022-09-28T16:23:27.958Z,14.78
2022-09-28T16:26:02.708Z,15.00
2022-09-28T16:28:52.064Z,14.72
2022-09-28T16:31:34.466Z,14.31
2022-09-28T16:34:20.087Z,14.11
2022-09-28T16:36:50.649Z,14.04
2022-09-28T16:39:20.619Z,14.16
2022-09-28T16:41:56.904Z,14.24
2022-09-28T16:44:28.641Z,14.17
2022-09-28T16:47:00.675Z,13.96
2022-09-28T16:49:32.171Z,13.90
2022-09-28T16:52:01.917Z,14.51
2022-09-28T16:54:48.266Z,14.50
2022-09-28T16:57:18.089Z,14.12
2022-09-28T16:59:46.359Z,14.22
2022-09-28T17:02:45.090Z,13.90
2022-09-28T17:05:11.148Z,13.69
2022-09-28T17:07:39.914Z,14.11
2022-09-28T17:10:19.367Z,13.73
2022-09-28T17:12:49.069Z,13.90
2022-09-28T17:15:19.672Z,13.84
2022-09-28T17:17:49.428Z,13.57
2022-09-28T17:20:22.848Z,13.58
2022-09-28T17:22:52.128Z,13.63
2022-09-28T17:25:21.415Z,13.76
2022-09-28T17:27:51.854Z,13.89
2022-09-28T17:30:23.606Z,13.70
2022-09-28T17:32:55.235Z,13.91
2022-09-28T17:35:24.981Z,13.72
2022-09-28T17:37:54.006Z,13.85
2022-09-28T17:40:24.676Z,13.68
2022-09-28T17:42:57.836Z,13.84
2022-09-28T17:45:31.322Z,13.49
2022-09-28T17:48:00.681Z,13.44
2022-09-28T17:50:32.404Z,13.46
2022-09-28T17:53:06.038Z,13.20
2022-09-28T17:55:36.685Z,13.65
2022-09-28T17:58:17.878Z,13.53
2022-09-28T18:00:48.348Z,13.62
2022-09-28T18:03:18.829Z,13.04
2022-09-28T18:05:49.837Z,13.41
2022-09-28T18:08:21.593Z,13.14
2022-09-28T18:10:52.278Z,12.97
2022-09-28T18:13:22.113Z,12.56
2022-09-28T18:15:52.818Z,12.61
2022-09-28T18:18:22.001Z,12.63
2022-09-28T18:20:53.162Z,12.63
2022-09-28T18:23:21.585Z,12.72
2022-09-28T18:25:49.985Z,12.06
2022-09-28T18:28:18.347Z,12.65
2022-09-28T18:30:48.129Z,12.46
2022-09-28T18:33:16.613Z,12.31
2022-09-28T18:35:53.568Z,12.43
2022-09-28T18:38:22.271Z,11.91
2022-09-28T18:40:50.876Z,12.24
2022-09-28T18:43:19.320Z,11.10
2022-09-28T18:45:49.641Z,11.93
2022-09-28T18:48:18.039Z,11.89
2022-09-28T18:50:46.423Z,11.46
2022-09-28T18:53:15.108Z,11.64
2022-09-28T18:55:44.712Z,11.83
2022-09-28T18:58:13.686Z,11.85
2022-09-28T19:00:43.453Z,11.76
2022-09-28T19:03:14.418Z,11.79
2022-09-28T19:05:43.953Z,11.40
2022-09-28T19:08:12.391Z,11.77
2022-09-28T19:10:40.812Z,11.31
2022-09-28T19:13:09.521Z,11.73
2022-09-28T19:15:38.694Z,11.12
2022-09-28T19:18:07.248Z,11.70
2022-09-28T19:20:37.023Z,11.60
2022-09-28T19:23:05.826Z,11.57
2022-09-28T19:25:35.403Z,11.53
2022-09-28T19:28:03.939Z,11.28
2022-09-28T19:30:32.277Z,11.25
2022-09-28T19:33:00.845Z,11.46
2022-09-28T19:35:29.461Z,10.54
2022-09-28T19:37:59.357Z,11.39
2022-09-28T19:40:27.700Z,11.25
2022-09-28T19:42:56.088Z,11.13
2022-09-28T19:45:24.564Z,11.23
2022-09-28T19:47:57.312Z,10.85
2022-09-28T19:50:27.641Z,11.20
2022-09-28T19:52:57.155Z,11.08
2022-09-28T19:55:35.235Z,11.05
2022-09-28T19:58:05.004Z,10.71
2022-09-28T20:00:33.320Z,11.09
2022-09-28T20:03:01.673Z,11.05
2022-09-28T20:05:30.071Z,10.30
2022-09-28T20:07:58.559Z,11.10
2022-09-28T20:10:30.170Z,10.91
2022-09-28T20:12:58.982Z,11.05
2022-09-28T20:15:28.231Z,10.98
2022-09-28T20:17:58.737Z,10.94
2022-09-28T20:20:28.010Z,10.67
2022-09-28T20:22:56.391Z,10.67
2022-09-28T20:25:25.591Z,10.91
2022-09-28T20:27:55.781Z,10.73
2022-09-28T20:30:24.280Z,10.39
2022-09-28T20:32:52.757Z,10.88
2022-09-28T20:35:32.315Z,10.41
2022-09-28T20:38:08.114Z,10.78
2022-09-28T20:40:36.628Z,10.53
2022-09-28T20:43:08.283Z,10.49
2022-09-28T20:45:38.137Z,10.65
2022-09-28T20:48:06.904Z,10.03
2022-09-28T20:50:35.724Z,9.78
2022-09-28T20:53:04.028Z,10.49
2022-09-28T20:55:32.356Z,10.26
2022-09-28T20:58:04.539Z,10.42
2022-09-28T21:00:34.381Z,10.21
2022-09-28T21:03:02.825Z,10.16
2022-09-28T21:05:31.207Z,10.25
2022-09-28T21:08:00.024Z,9.28
2022-09-28T21:10:30.281Z,10.31
2022-09-28T21:12:58.741Z,9.80
2022-09-28T21:15:29.551Z,10.20
2022-09-28T21:17:59.491Z,10.17
2022-09-28T21:20:27.913Z,9.94
2022-09-28T21:22:56.233Z,9.84
2022-09-28T21:25:24.691Z,10.12
2022-09-28T21:27:53.975Z,10.17
2022-09-28T21:30:22.236Z,9.99
2022-09-28T21:32:52.161Z,10.12
2022-09-28T21:35:21.827Z,10.16
2022-09-28T21:37:50.943Z,10.12
2022-09-28T21:40:19.985Z,10.03
2022-09-28T21:42:48.331Z,9.65
2022-09-28T21:45:17.367Z,9.63
2022-09-28T21:47:52.653Z,10.02
2022-09-28T21:50:25.108Z,9.82
2022-09-28T21:52:55.093Z,9.72
2022-09-28T21:55:24.922Z,9.80
2022-09-28T21:57:53.276Z,9.74
2022-09-28T22:00:24.330Z,9.32
2022-09-28T22:02:53.101Z,9.46
2022-09-28T22:05:22.892Z,9.55
2022-09-28T22:07:51.203Z,9.67
2022-09-28T22:10:19.667Z,9.86
2022-09-28T22:12:47.940Z,9.50
2022-09-28T22:15:16.463Z,9.79
2022-09-28T22:17:45.021Z,9.80
2022-09-28T22:20:13.344Z,9.78
2022-09-28T22:22:43.054Z,9.82
2022-09-28T22:25:11.506Z,9.82
2022-09-28T22:27:40.126Z,9.52
2022-09-28T22:30:09.958Z,9.56
2022-09-28T22:32:38.245Z,9.72
2022-09-28T22:35:08.361Z,9.72
2022-09-28T22:37:36.618Z,9.17
2022-09-28T22:40:07.777Z,9.44
2022-09-28T22:42:36.191Z,9.62
2022-09-28T22:45:05.191Z,8.55
2022-09-28T22:47:33.654Z,9.53
2022-09-28T22:50:01.985Z,9.53
2022-09-28T22:52:30.401Z,9.40
2022-09-28T22:54:58.916Z,9.48
2022-09-28T22:57:28.853Z,9.44
2022-09-28T22:59:57.206Z,9.44
2022-09-28T23:02:25.718Z,9.18
2022-09-28T23:04:54.075Z,9.21
2022-09-28T23:07:22.442Z,9.34
2022-09-28T23:09:53.297Z,9.36
2022-09-28T23:12:21.750Z,9.09
2022-09-28T23:14:52.274Z,8.53
2022-09-28T23:17:20.902Z,9.03
2022-09-28T23:19:49.425Z,9.20
2022-09-28T23:22:17.833Z,9.18
2022-09-28T23:24:46.363Z,9.20
2022-09-28T23:27:14.633Z,9.19
2022-09-28T23:29:46.850Z,9.19
2022-09-28T23:32:17.553Z,9.00
2022-09-28T23:34:45.990Z,8.10
2022-09-28T23:37:14.380Z,9.14
2022-09-28T23:39:43.675Z,9.14
2022-09-28T23:42:12.418Z,8.86
2022-09-28T23:44:40.842Z,8.93
2022-09-28T23:47:09.218Z,8.97
2022-09-28T23:49:39.334Z,9.05
2022-09-28T23:52:07.823Z,9.00
2022-09-28T23:54:36.289Z,9.01
2022-09-28T23:57:04.973Z,8.99
2022-09-28T23:59:33.501Z,8.89
